Suez, Egypt
Current Conditions -  °F | °C
As of 2:30 AM on Saturday 25 Oct 2014 (Local Time) from HECA Reporting Station
Clear Clear  
Wind Chill: 72°   Ceiling: Unl
Heat Index: 72°   Visibility: 6mi
Dew Point: 43°   Wind: 7mph
Humidity: 35%   Direction: 140°SE
Pressure: 29.97"   Gusts: NA
Location:  29.58°N, 32.33°E
Report Text: HECA 250030Z 14006KT CAVOK 22/06 Q1015 NOSIG
Loading
Personal Weather Stations






























Interactive Weather Map
Tropical Storm Tracking
New forecast layout! Learn more

10-Day Weather Forecast

Advertisements
Track Severe Weather on mobile